Time;durP1;ratioP1;P1;durP2;ratioP2;P2;SDS_P1;SDS_P2;PMS_P1;PMS_P2;Temp;Humidity;BMP_temperature;BMP_pressure;BME280_temperature;BME280_humidity;BME280_pressure;Samples;Min_cycle;Max_cycle;Signal;HPM_P1;HPM_P2
2024/04/18 00:02:08;;;;;;;6.05;3.40;;;;;;;3.20;100.00;101295.38;5175965;27;20015;-75
2024/04/18 00:04:34;;;;;;;5.30;3.00;;;;;;;3.18;100.00;101294.75;5175116;27;20350;-74
2024/04/18 00:07:01;;;;;;;5.13;3.00;;;;;;;3.18;100.00;101300.84;5206404;27;20022;-75
2024/04/18 00:09:27;;;;;;;4.38;2.55;;;;;;;3.19;100.00;101304.34;5198818;27;20078;-74
2024/04/18 00:11:53;;;;;;;;;;;;;;;3.14;100.00;101299.66;5170858;27;20983;-74
2024/04/18 00:14:19;;;;;;;5.40;3.35;;;;;;;3.10;100.00;101310.84;5168193;27;20020;-74
2024/04/18 00:16:45;;;;;;;5.07;2.83;;;;;;;3.07;100.00;101303.34;5146413;27;20019;-74
2024/04/18 00:19:17;;;;;;;4.10;2.90;;;;;;;3.07;100.00;101306.78;5165633;27;20556;-76
2024/04/18 00:21:56;;;;;;;7.93;3.33;;;;;;;3.00;100.00;101306.78;5197166;27;20012;-76
2024/04/18 00:24:27;;;;;;;6.50;3.25;;;;;;;2.96;100.00;101299.47;5165100;27;20051;-75
2024/04/18 00:26:54;;;;;;;7.78;3.55;;;;;;;2.94;100.00;101309.44;5148905;27;20016;-74
2024/04/18 00:29:19;;;;;;;5.60;3.50;;;;;;;2.91;100.00;101305.41;5196050;27;20023;-76
2024/04/18 00:31:45;;;;;;;5.88;3.08;;;;;;;2.90;100.00;101308.22;5182897;27;20011;-76
2024/04/18 00:34:31;;;;;;;5.75;3.08;;;;;;;2.86;100.00;101315.78;5201311;27;20390;-74
2024/04/18 00:36:56;;;;;;;5.82;3.30;;;;;;;2.84;100.00;101316.97;5173391;27;20023;-76
2024/04/18 00:39:23;;;;;;;5.07;3.63;;;;;;;2.79;100.00;101314.97;5178723;27;20027;-74
2024/04/18 00:41:58;;;;;;;7.40;3.80;;;;;;;2.77;100.00;101319.63;5169126;27;20012;-74
2024/04/18 00:44:30;;;;;;;;;;;;;;;2.77;100.00;101324.09;5178017;27;20007;-74
2024/04/18 00:47:13;;;;;;;6.18;3.70;;;;;;;2.72;100.00;101322.09;5177751;27;19995;-74
2024/04/18 00:49:40;;;;;;;7.03;3.42;;;;;;;2.72;100.00;101330.03;5208395;27;20011;-75
2024/04/18 00:52:11;;;;;;;5.65;3.65;;;;;;;2.72;100.00;101330.03;5197578;27;20012;-75
2024/04/18 00:54:52;;;;;;;5.47;3.40;;;;;;;2.71;100.00;101323.91;5150645;27;20012;-74
2024/04/18 00:57:34;;;;;;;5.53;3.28;;;;;;;2.70;100.00;101326.75;5188672;27;20011;-74
2024/04/18 01:00:05;;;;;;;5.13;3.15;;;;;;;2.67;100.00;101325.31;5177701;27;20016;-75
2024/04/18 01:02:50;;;;;;;5.28;3.15;;;;;;;2.65;100.00;101324.72;5172822;27;20015;-75
2024/04/18 01:05:32;;;;;;;4.47;2.80;;;;;;;2.62;100.00;101322.47;5149783;27;20139;-74
2024/04/18 01:07:58;;;;;;;4.97;3.13;;;;;;;2.60;100.00;101321.06;5203539;27;20016;-75
2024/04/18 01:10:24;;;;;;;6.32;3.33;;;;;;;2.58;100.00;101320.44;5182527;27;20027;-74
2024/04/18 01:13:00;;;;;;;4.50;3.20;;;;;;;2.58;100.00;101323.91;5176560;27;20012;-75
2024/04/18 01:15:44;;;;;;;4.65;3.20;;;;;;;2.55;100.00;101328.78;5171162;27;20019;-74
2024/04/18 01:18:11;;;;;;;6.03;3.28;;;;;;;2.54;100.00;101340.38;5156324;27;20385;-74
2024/04/18 01:20:37;;;;;;;4.88;3.00;;;;;;;2.56;100.00;101340.97;5197731;27;20059;-75
2024/04/18 01:23:03;;;;;;;5.65;3.80;;;;;;;2.54;100.00;101341.19;5181690;27;20790;-75
2024/04/18 01:25:41;;;;;;;7.45;3.38;;;;;;;2.56;100.00;101338.31;5194840;27;20011;-75
2024/04/18 01:28:08;;;;;;;5.70;3.00;;;;;;;2.57;100.00;101347.88;5176177;27;20011;-74
2024/04/18 01:30:53;;;;;;;4.22;3.10;;;;;;;2.53;100.00;101341.38;5200616;27;20012;-74
2024/04/18 01:33:19;;;;;;;4.82;3.47;;;;;;;2.47;100.00;101341.16;5170139;27;20096;-75
2024/04/18 01:35:45;;;;;;;8.10;3.58;;;;;;;2.44;100.00;101343.41;5216263;27;20015;-75
2024/04/18 01:38:19;;;;;;;5.10;3.53;;;;;;;2.41;100.00;101349.09;5200890;27;20008;-73
2024/04/18 01:40:45;;;;;;;7.78;3.95;;;;;;;2.39;100.00;101337.91;5208317;27;20026;-75
2024/04/18 01:43:29;;;;;;;5.65;3.75;;;;;;;2.35;100.00;101345.41;5182487;27;20091;-74
2024/04/18 01:46:18;;;;;;;6.90;4.00;;;;;;;2.29;100.00;101354.13;5199821;27;20019;-74
2024/04/18 01:48:59;;;;;;;6.07;3.60;;;;;;;2.26;100.00;101345.81;5177049;27;20489;-73
2024/04/18 01:51:43;;;;;;;5.65;3.70;;;;;;;2.30;100.00;101360.25;5200408;27;20042;-74
2024/04/18 01:54:42;;;;;;;7.07;4.00;;;;;;;2.28;100.00;101355.16;5198606;27;20008;-75
2024/04/18 01:57:07;;;;;;;7.25;3.70;;;;;;;2.26;100.00;101361.66;5176910;27;20007;-75
2024/04/18 01:59:52;;;;;;;5.22;3.28;;;;;;;2.19;100.00;101364.28;5203352;27;20063;-75
2024/04/18 02:02:18;;;;;;;6.53;3.95;;;;;;;2.19;100.00;101357.19;5198595;27;20086;-75
2024/04/18 02:05:04;;;;;;;5.63;3.70;;;;;;;2.14;100.00;101358.78;5194091;27;20023;-74
2024/04/18 02:07:43;;;;;;;7.82;4.47;;;;;;;2.11;100.00;101351.28;5182982;27;20026;-76
2024/04/18 02:10:08;;;;;;;6.25;3.95;;;;;;;2.06;100.00;101356.31;5206570;27;20023;-75
2024/04/18 02:12:56;;;;;;;7.07;4.25;;;;;;;2.03;100.00;101354.06;5149863;27;20023;-75
2024/04/18 02:15:42;;;;;;;5.57;4.07;;;;;;;2.03;100.00;101354.06;5153591;27;20059;-80
2024/04/18 02:18:13;;;;;;;6.38;4.32;;;;;;;2.03;100.00;101356.69;5175795;27;20592;-75
2024/04/18 02:20:42;;;;;;;6.65;4.70;;;;;;;2.03;100.00;101359.34;5208471;27;20023;-76
2024/04/18 02:23:22;;;;;;;7.38;4.93;;;;;;;2.01;100.00;101358.75;5181748;27;20014;-75
2024/04/18 02:25:52;;;;;;;7.35;4.28;;;;;;;1.98;100.00;101356.50;5176269;27;20019;-75
2024/04/18 02:28:17;;;;;;;6.97;3.65;;;;;;;1.95;100.00;101359.53;5198773;27;20462;-76
2024/04/18 02:30:43;;;;;;;5.72;3.83;;;;;;;1.92;100.00;101361.56;5182139;27;20004;-76
2024/04/18 02:33:15;;;;;;;6.65;4.15;;;;;;;1.86;100.00;101366.81;5182461;27;20016;-75
2024/04/18 02:35:45;;;;;;;6.95;3.92;;;;;;;1.84;100.00;101368.84;5152582;27;20012;-74
2024/04/18 02:38:30;;;;;;;6.57;4.50;;;;;;;1.78;100.00;101367.78;5184910;27;20008;-75
2024/04/18 02:41:06;;;;;;;7.65;4.82;;;;;;;1.77;100.00;101373.28;5178878;27;20022;-75
2024/04/18 02:43:59;;;;;;;8.00;4.65;;;;;;;1.75;100.00;101368.16;5168908;27;20004;-75
2024/04/18 02:46:25;;;;;;;8.30;4.97;;;;;;;1.75;100.00;101378.72;5194690;27;20008;-75
2024/04/18 02:49:09;;;;;;;10.02;5.15;;;;;;;1.74;100.00;101374.47;5200773;27;20039;-76
2024/04/18 02:51:57;;;;;;;8.35;4.50;;;;;;;1.72;100.00;101380.97;5202194;27;20395;-75
2024/04/18 02:54:41;;;;;;;9.30;5.32;;;;;;;1.72;100.00;101376.50;5167634;27;20031;-75
2024/04/18 02:57:07;;;;;;;8.07;5.38;;;;;;;1.73;100.00;101372.03;5170702;27;20012;-74
2024/04/18 02:59:32;;;;;;;7.32;5.00;;;;;;;1.74;100.00;101381.56;5202323;27;20004;-74
2024/04/18 03:02:18;;;;;;;10.32;5.95;;;;;;;1.75;100.00;101389.28;5178356;27;20498;-75
2024/04/18 03:04:44;;;;;;;8.32;6.03;;;;;;;1.72;100.00;101387.06;5149041;27;20022;-75
2024/04/18 03:07:10;;;;;;;10.13;6.28;;;;;;;1.69;100.00;101382.16;5173822;27;20008;-75
2024/04/18 03:09:46;;;;;;;9.02;6.00;;;;;;;1.69;100.00;101387.44;5164040;27;20023;-75
2024/04/18 03:12:26;;;;;;;10.98;6.05;;;;;;;1.66;100.00;101393.13;5199322;27;20022;-75
2024/04/18 03:15:09;;;;;;;9.63;6.00;;;;;;;1.66;100.00;101390.47;5176882;27;20022;-75
2024/04/18 03:18:00;;;;;;;9.52;5.80;;;;;;;1.67;100.00;101386.00;5169533;27;20008;-75
2024/04/18 03:20:34;;;;;;;10.52;6.38;;;;;;;1.67;100.00;101388.66;5195290;27;20011;-75
2024/04/18 03:23:08;;;;;;;13.05;6.50;;;;;;;1.64;100.00;101395.16;5197312;27;20022;-75
2024/04/18 03:25:53;;;;;;;7.93;5.85;;;;;;;1.64;100.00;101395.16;5191107;27;20026;-74
2024/04/18 03:28:19;;;;;;;9.85;6.32;;;;;;;1.64;100.00;101398.59;5202243;27;20020;-75
2024/04/18 03:30:45;;;;;;;;;;;;;;;1.64;100.00;101395.97;5184188;27;20083;-75
2024/04/18 03:33:11;;;;;;;8.77;6.20;;;;;;;1.64;100.00;101395.16;5200389;27;19956;-75
2024/04/18 03:35:38;;;;;;;9.88;5.90;;;;;;;1.64;100.00;101390.69;5194950;27;20075;-75
2024/04/18 03:38:14;;;;;;;8.52;6.07;;;;;;;1.65;100.00;101396.78;5187014;27;20786;-73
2024/04/18 03:40:40;;;;;;;8.05;5.43;;;;;;;1.63;100.00;101394.34;5201900;27;20019;-74
2024/04/18 03:43:06;;;;;;;8.68;5.60;;;;;;;1.64;100.00;101405.72;5204408;27;20024;-75
2024/04/18 03:45:33;;;;;;;11.60;6.50;;;;;;;1.66;100.00;101408.16;5202608;27;20003;-74
2024/04/18 03:48:17;;;;;;;8.32;5.97;;;;;;;1.66;100.00;101408.97;5184158;27;20466;-74
2024/04/18 03:50:43;;;;;;;;;;;;;;;1.65;100.00;101415.25;5175431;27;20004;-74
2024/04/18 03:53:21;;;;;;;8.23;5.85;;;;;;;1.62;100.00;101413.00;5171946;27;19927;-73
2024/04/18 03:55:46;;;;;;;10.68;6.68;;;;;;;1.60;100.00;101415.81;5173918;27;20008;-73
2024/04/18 03:58:12;;;;;;;9.00;6.28;;;;;;;1.62;100.00;101410.34;5197143;27;20026;-74
2024/04/18 04:00:50;;;;;;;10.30;6.57;;;;;;;1.60;100.00;101420.28;5177683;27;20008;-73
2024/04/18 04:03:16;;;;;;;8.45;6.18;;;;;;;1.59;100.00;101413.38;5203360;27;20011;-74
2024/04/18 04:05:41;;;;;;;8.20;6.03;;;;;;;1.58;100.00;101423.13;5200863;27;20022;-73
2024/04/18 04:08:07;;;;;;;8.98;5.47;;;;;;;1.56;100.00;101422.53;5176082;27;20004;-73
2024/04/18 04:10:37;;;;;;;10.77;6.60;;;;;;;1.56;100.00;101425.16;5202906;27;20019;-73
2024/04/18 04:13:03;;;;;;;10.48;5.95;;;;;;;1.55;100.00;101425.34;5198975;27;20397;-73
2024/04/18 04:15:42;;;;;;;10.07;6.35;;;;;;;1.49;100.00;101428.75;5197266;27;20351;-74
2024/04/18 04:18:07;;;;;;;12.55;6.70;;;;;;;1.46;100.00;101434.41;5182241;27;20023;-73
2024/04/18 04:20:43;;;;;;;10.13;6.85;;;;;;;1.44;100.00;101445.19;5174753;27;20011;-74
2024/04/18 04:23:08;;;;;;;;;;;;;;;1.45;100.00;101449.44;5150020;27;20015;-73
2024/04/18 04:25:53;;;;;;;10.23;6.43;;;;;;;1.44;100.00;101449.63;5208356;27;20367;-73
2024/04/18 04:28:19;;;;;;;9.32;6.45;;;;;;;1.43;100.00;101445.38;5170658;27;20430;-73
2024/04/18 04:30:44;;;;;;;9.93;6.53;;;;;;;1.41;100.00;101452.66;5169790;27;20121;-74
2024/04/18 04:33:10;;;;;;;14.18;6.90;;;;;;;1.42;100.00;101451.63;5174202;27;20008;-73
2024/04/18 04:35:36;;;;;;;12.98;7.88;;;;;;;1.42;100.00;101454.28;5200824;27;20016;-75
2024/04/18 04:38:03;;;;;;;10.10;6.88;;;;;;;1.39;100.00;101460.75;5180751;27;20279;-73
2024/04/18 04:40:32;;;;;;;13.25;6.95;;;;;;;1.39;100.00;101457.31;5191159;27;20052;-73
2024/04/18 04:42:57;;;;;;;10.32;7.32;;;;;;;1.38;100.00;101458.31;5203209;27;20007;-73
2024/04/18 04:45:23;;;;;;;12.32;7.28;;;;;;;1.42;100.00;101470.09;5172540;27;20853;-75
2024/04/18 04:48:04;;;;;;;10.40;7.47;;;;;;;1.42;100.00;101470.09;5171404;27;20564;-72
2024/04/18 04:50:29;;;;;;;10.32;6.90;;;;;;;1.45;100.00;101475.03;5166688;27;20015;-72
2024/04/18 04:53:11;;;;;;;10.60;6.55;;;;;;;1.48;100.00;101479.91;5168951;27;20008;-71
2024/04/18 04:55:57;;;;;;;9.75;6.07;;;;;;;1.52;100.00;101481.16;5193466;27;20815;-72
2024/04/18 04:58:23;;;;;;;11.32;7.13;;;;;;;1.54;100.00;101487.06;5171270;27;20099;-73
2024/04/18 05:00:49;;;;;;;10.10;6.88;;;;;;;1.56;100.00;101488.53;5174563;27;20016;-73
2024/04/18 05:03:35;;;;;;;9.60;6.97;;;;;;;1.58;100.00;101489.13;5174777;27;20028;-72
2024/04/18 05:06:19;;;;;;;11.68;7.25;;;;;;;1.64;100.00;101492.84;5172197;27;20012;-73
2024/04/18 05:09:06;;;;;;;11.77;7.05;;;;;;;1.69;100.00;101493.06;5184165;27;20681;-73
2024/04/18 05:11:32;;;;;;;11.93;7.07;;;;;;;1.78;100.00;101496.38;5200038;27;20030;-72
2024/04/18 05:13:58;;;;;;;12.45;7.55;;;;;;;1.91;100.00;101502.56;5204658;27;20023;-73
2024/04/18 05:16:44;;;;;;;12.77;7.60;;;;;;;2.04;100.00;101498.38;5203274;27;20102;-74
2024/04/18 05:19:10;;;;;;;11.70;7.78;;;;;;;2.12;100.00;101504.31;5178041;27;20019;-73
2024/04/18 05:21:36;;;;;;;13.57;8.85;;;;;;;2.17;100.00;101501.91;5153743;27;20018;-72
2024/04/18 05:24:21;;;;;;;11.10;7.53;;;;;;;2.23;100.00;101513.50;5177654;27;20020;-73
2024/04/18 05:26:46;;;;;;;10.52;7.03;;;;;;;2.28;100.00;101513.75;5200642;27;20043;-74
2024/04/18 05:31:59;;;;;;;9.48;7.43;;;;;;;2.46;100.00;101519.31;5204169;27;20007;-73
2024/04/18 05:34:25;;;;;;;8.90;5.95;;;;;;;2.53;100.00;101515.91;5179026;27;20489;-73
2024/04/18 05:36:51;;;;;;;10.68;7.57;;;;;;;2.63;100.00;101521.63;5208340;27;20019;-72
2024/04/18 05:39:17;;;;;;;10.10;7.28;;;;;;;2.69;100.00;101520.84;5198656;27;20008;-73
2024/04/18 05:41:42;;;;;;;7.82;6.03;;;;;;;2.79;100.00;101521.28;5177023;27;20104;-73
2024/04/18 05:44:36;;;;;;;9.80;7.15;;;;;;;2.96;100.00;101521.72;5194591;27;20008;-74
2024/04/18 05:47:02;;;;;;;12.25;8.45;;;;;;;3.13;100.00;101522.19;5153844;27;20023;-74
2024/04/18 05:49:28;;;;;;;13.80;8.88;;;;;;;3.26;100.00;101524.84;5166240;27;20083;-73
2024/04/18 05:51:53;;;;;;;13.52;9.48;;;;;;;3.36;100.00;101532.38;5204252;27;20365;-72
2024/04/18 05:54:28;;;;;;;15.57;9.25;;;;;;;3.48;100.00;101531.59;5177161;27;20084;-73
2024/04/18 05:57:07;;;;;;;14.05;8.30;;;;;;;3.61;100.00;101536.06;5200127;27;20525;-73
2024/04/18 05:59:50;;;;;;;13.27;8.73;;;;;;;3.79;100.00;101520.38;5204897;27;20493;-72
2024/04/18 06:02:15;;;;;;;13.23;8.93;;;;;;;3.96;100.00;101528.69;5204860;27;20008;-72
2024/04/18 06:04:41;;;;;;;13.00;9.10;;;;;;;4.10;100.00;101535.59;5200421;27;20056;-73
2024/04/18 06:07:32;;;;;;;13.60;8.77;;;;;;;4.28;100.00;101531.50;5154818;27;20008;-73
2024/04/18 06:09:57;;;;;;;12.98;8.57;;;;;;;4.33;100.00;101529.00;5189671;27;20014;-73
2024/04/18 06:12:23;;;;;;;14.27;9.50;;;;;;;4.38;100.00;101526.56;5171256;27;20063;-72
2024/04/18 06:14:49;;;;;;;13.85;9.60;;;;;;;4.55;100.00;101535.69;5177862;27;20081;-73
2024/04/18 06:17:15;;;;;;;12.50;9.10;;;;;;;4.65;100.00;101528.06;5182860;27;20365;-73
2024/04/18 06:19:51;;;;;;;13.23;8.77;;;;;;;4.79;100.00;101528.81;5178230;27;20019;-75
2024/04/18 06:22:31;;;;;;;14.77;8.35;;;;;;;4.93;100.00;101535.69;5159136;27;20018;-73
2024/04/18 06:25:17;;;;;;;13.88;9.10;;;;;;;5.15;100.00;101535.38;5199449;27;20473;-72
2024/04/18 06:27:44;;;;;;;13.05;9.38;;;;;;;5.31;100.00;101539.34;5181992;27;20103;-72
2024/04/18 06:30:10;;;;;;;13.18;8.35;;;;;;;5.50;100.00;101546.38;5176432;27;20090;-72
2024/04/18 06:32:37;;;;;;;11.52;8.40;;;;;;;5.63;100.00;101543.63;5174666;27;20103;-73
2024/04/18 06:35:03;;;;;;;12.30;8.05;;;;;;;5.75;100.00;101541.84;5206691;27;20067;-73
2024/04/18 06:37:31;;;;;;;11.95;8.13;;;;;;;5.84;100.00;101553.03;5197862;27;20047;-74
2024/04/18 06:39:57;;;;;;;12.98;8.63;;;;;;;5.97;100.00;101549.47;5199666;27;20008;-75
2024/04/18 06:42:23;;;;;;;11.35;8.82;;;;;;;6.03;100.00;101545.94;5193566;27;20007;-73
2024/04/18 06:44:49;;;;;;;11.88;7.93;;;;;;;6.16;100.00;101551.09;5153067;27;20048;-72
2024/04/18 06:47:14;;;;;;;10.95;7.57;;;;;;;6.28;100.00;101548.53;5206689;27;20031;-72
2024/04/18 06:50:00;;;;;;;13.48;8.25;;;;;;;6.40;100.00;101545.97;5182638;27;20018;-72
2024/04/18 06:52:26;;;;;;;13.50;7.57;;;;;;;6.48;100.00;101558.97;5175348;27;21192;-72
2024/04/18 06:54:51;;;;;;;13.35;8.75;;;;;;;6.50;100.00;101556.88;5144854;27;20390;-73
2024/04/18 06:57:37;;;;;;;10.15;7.38;;;;;;;6.52;100.00;101552.97;5202368;27;20020;-72
2024/04/18 07:00:04;;;;;;;10.13;6.55;;;;;;;6.64;100.00;101555.72;5173067;27;20004;-73
2024/04/18 07:02:30;;;;;;;8.02;5.97;;;;;;;6.76;100.00;101561.09;5171431;27;20012;-72
2024/04/18 07:05:15;;;;;;;10.35;6.78;;;;;;;6.95;100.00;101564.53;5198860;27;20008;-73
2024/04/18 07:07:50;;;;;;;10.25;6.20;;;;;;;7.03;100.00;101561.56;5198144;27;20458;-73
2024/04/18 07:10:33;;;;;;;7.18;5.80;;;;;;;7.04;100.00;101568.50;5206290;27;20026;-73
2024/04/18 07:13:19;;;;;;;7.65;5.03;;;;;;;7.16;100.00;101561.38;5177677;27;20011;-73
2024/04/18 07:16:00;;;;;;;8.20;5.38;;;;;;;7.17;100.00;101563.00;5199740;27;20412;-73
2024/04/18 07:18:44;;;;;;;10.10;5.75;;;;;;;7.26;100.00;101566.16;5190855;27;20469;-73
2024/04/18 07:21:10;;;;;;;8.35;5.47;;;;;;;7.30;100.00;101570.78;5180883;27;20018;-72
2024/04/18 07:23:36;;;;;;;6.20;3.90;;;;;;;7.38;100.00;101578.50;5172877;27;20008;-73
2024/04/18 07:26:02;;;;;;;8.38;4.32;;;;;;;7.36;100.00;101577.88;5173287;27;20036;-71
2024/04/18 07:28:35;;;;;;;7.18;4.40;;;;;;;7.44;100.00;101582.06;5178529;27;20532;-75
2024/04/18 07:31:00;;;;;;;5.75;4.00;;;;;;;7.57;100.00;101570.41;5167288;27;20007;-73
2024/04/18 07:33:26;;;;;;;6.30;3.95;;;;;;;7.68;100.00;101580.28;5176085;27;20003;-74
2024/04/18 07:35:56;;;;;;;5.70;3.13;;;;;;;7.77;100.00;101572.75;5147644;27;20358;-72
2024/04/18 07:38:26;;;;;;;8.50;2.67;;;;;;;7.85;100.00;101573.22;5171788;27;20024;-73
2024/04/18 07:40:52;;;;;;;6.85;3.13;;;;;;;7.98;100.00;101574.03;5200003;27;20012;-72
2024/04/18 07:43:18;;;;;;;4.45;3.10;;;;;;;8.12;100.00;101575.41;5191552;27;20026;-73
2024/04/18 07:45:44;;;;;;;5.50;3.20;;;;;;;8.20;100.00;101581.25;5199643;27;20009;-73
2024/04/18 07:48:09;;;;;;;6.70;3.17;;;;;;;8.18;100.00;101574.50;5152370;27;20501;-72
2024/04/18 07:50:35;;;;;;;3.55;2.75;;;;;;;8.23;100.00;101571.94;5173980;27;20019;-72
2024/04/18 07:53:01;;;;;;;5.40;2.83;;;;;;;8.33;100.00;101572.19;5170142;27;20015;-73
2024/04/18 07:55:27;;;;;;;5.45;2.75;;;;;;;8.41;100.00;101579.84;5175534;27;20007;-75
2024/04/18 07:57:52;;;;;;;6.65;3.25;;;;;;;8.51;100.00;101578.44;5202680;27;20109;-74
2024/04/18 08:00:18;;;;;;;5.82;2.50;;;;;;;8.62;100.00;101574.94;5173548;27;20011;-73
2024/04/18 08:02:44;;;;;;;4.75;3.00;;;;;;;8.76;100.00;101576.28;5146301;27;20027;-73
2024/04/18 08:05:13;;;;;;;4.70;2.58;;;;;;;8.83;100.00;101570.81;5176700;27;20549;-75
2024/04/18 08:07:39;;;;;;;4.00;2.45;;;;;;;8.91;100.00;101578.44;5173936;27;20011;-73
2024/04/18 08:10:05;;;;;;;7.63;2.40;;;;;;;8.95;100.00;101585.75;5175528;27;20008;-73
2024/04/18 08:12:30;;;;;;;5.22;2.03;;;;;;;9.07;100.00;101572.31;5178572;27;20015;-74
2024/04/18 08:14:55;;;;;;;5.82;2.30;;;;;;;9.11;100.00;101588.72;5150135;27;20026;-73
2024/04/18 08:17:21;;;;;;;5.43;2.65;;;;;;;9.13;100.00;101581.25;5196804;27;20606;-73
2024/04/18 08:19:47;;;;;;;5.63;3.00;;;;;;;9.20;100.00;101582.72;5203636;27;20011;-73
2024/04/18 08:22:13;;;;;;;3.70;2.28;;;;;;;9.33;100.00;101580.81;5210055;27;20015;-74
2024/04/18 08:24:38;;;;;;;7.93;2.80;;;;;;;9.38;100.00;101588.94;5180243;27;20477;-73
2024/04/18 08:27:05;;;;;;;4.95;2.85;;;;;;;9.35;100.00;101582.22;5170607;27;20462;-73
2024/04/18 08:29:31;;;;;;;8.00;2.60;;;;;;;9.50;100.00;101587.00;5166093;27;20090;-72
2024/04/18 08:31:56;;;;;;;3.83;2.10;;;;;;;9.62;100.00;101584.25;5207694;27;20996;-73
2024/04/18 08:34:22;;;;;;;4.88;2.50;;;;;;;9.67;100.00;101582.47;5203143;27;20020;-73
2024/04/18 08:36:48;;;;;;;5.53;2.63;;;;;;;9.62;100.00;101589.59;5169438;27;20024;-73
2024/04/18 08:39:15;;;;;;;4.85;2.80;;;;;;;9.68;100.00;101593.97;5169583;27;20051;-74
2024/04/18 08:41:42;;;;;;;7.10;3.38;;;;;;;9.74;100.00;101587.66;5201664;27;20107;-76
2024/04/18 08:44:08;;;;;;;5.82;2.88;;;;;;;9.71;100.00;101588.97;5208371;27;20358;-73
2024/04/18 08:46:38;;;;;;;5.30;2.92;;;;;;;9.81;100.00;101588.31;5207029;27;20454;-74
2024/04/18 08:49:08;;;;;;;5.95;3.05;;;;;;;9.95;100.00;101586.91;5203450;27;20016;-73
2024/04/18 08:51:36;;;;;;;4.40;2.80;;;;;;;10.05;100.00;101589.75;5203296;27;20087;-73
2024/04/18 08:54:05;;;;;;;5.35;3.08;;;;;;;10.12;100.00;101590.41;5208187;27;20469;-73
2024/04/18 08:56:34;;;;;;;5.55;2.90;;;;;;;10.23;100.00;101582.53;5201223;27;20358;-74
2024/04/18 08:59:00;;;;;;;4.38;2.65;;;;;;;10.33;100.00;101585.34;5173261;27;20029;-73
2024/04/18 09:01:27;;;;;;;5.47;2.78;;;;;;;10.44;100.00;101589.81;5183448;27;20555;-74
2024/04/18 09:03:58;;;;;;;6.15;3.17;;;;;;;10.38;100.00;101588.91;5173965;27;20003;-72
2024/04/18 09:06:24;;;;;;;3.47;2.38;;;;;;;10.46;100.00;101594.91;5171431;27;20016;-72
2024/04/18 09:08:55;;;;;;;6.38;2.90;;;;;;;10.51;100.00;101590.44;5162166;27;20099;-72
2024/04/18 09:11:21;;;;;;;5.00;2.67;;;;;;;10.47;100.00;101591.97;5160903;27;20013;-72
2024/04/18 09:13:47;;;;;;;3.47;2.47;;;;;;;10.48;100.00;101592.78;5198050;27;20027;-73
2024/04/18 09:16:13;;;;;;;6.57;3.00;;;;;;;10.27;100.00;101594.38;5190014;27;20401;-74
2024/04/18 09:18:40;;;;;;;;;;;;;;;10.15;100.00;101593.63;5176914;27;20020;-74
2024/04/18 09:21:10;;;;;;;4.10;1.98;;;;;;;10.17;100.00;101583.50;5180630;27;19939;-74
2024/04/18 09:23:37;;;;;;;6.40;2.47;;;;;;;10.36;100.00;101590.19;5173108;27;20874;-73
2024/04/18 09:26:03;;;;;;;6.05;3.08;;;;;;;10.34;100.00;101585.09;5190128;27;20018;-73
2024/04/18 09:28:29;;;;;;;7.15;2.70;;;;;;;10.47;100.00;101583.13;5202476;27;20001;-73
2024/04/18 09:30:55;;;;;;;4.20;2.70;;;;;;;10.58;100.00;101583.03;5173850;27;20008;-72
2024/04/18 09:33:23;;;;;;;3.50;1.90;;;;;;;10.70;100.00;101587.41;5195384;27;20018;-75
2024/04/18 09:35:52;;;;;;;4.15;2.70;;;;;;;10.84;100.00;101575.28;5196097;27;20082;-73
2024/04/18 09:38:18;;;;;;;4.82;2.38;;;;;;;10.96;100.00;101578.63;5183392;27;20014;-72
2024/04/18 09:41:10;;;;;;;4.55;2.60;;;;;;;11.08;100.00;101589.22;5149343;27;20007;-72
2024/04/18 09:43:48;;;;;;;5.35;2.17;;;;;;;11.22;100.00;101582.38;5181031;27;20354;-74
2024/04/18 09:46:14;;;;;;;5.25;2.45;;;;;;;11.42;100.00;101574.53;5175930;27;20027;-74
2024/04/18 09:48:41;;;;;;;6.72;2.78;;;;;;;11.41;100.00;101580.16;5175475;27;20396;-74
2024/04/18 09:51:08;;;;;;;4.70;2.42;;;;;;;11.44;100.00;101576.94;5173463;27;20026;-73
2024/04/18 09:53:35;;;;;;;4.80;1.80;;;;;;;11.31;100.00;101583.56;5168075;27;20008;-74
2024/04/18 09:56:01;;;;;;;2.95;1.88;;;;;;;11.28;100.00;101581.38;5151870;27;20020;-73
2024/04/18 09:58:28;;;;;;;4.60;1.80;;;;;;;11.28;93.71;101586.72;5200734;27;20022;-72
2024/04/18 10:00:55;;;;;;;3.25;2.00;;;;;;;11.43;100.00;101578.00;5151705;27;20008;-73
2024/04/18 10:03:21;;;;;;;3.40;1.80;;;;;;;11.47;84.03;101573.78;5181523;27;20003;-75
2024/04/18 10:05:52;;;;;;;3.30;1.95;;;;;;;11.62;100.00;101578.44;5171128;27;20000;-74
2024/04/18 10:08:22;;;;;;;2.42;1.80;;;;;;;11.84;89.08;101573.00;5199204;27;20095;-73
2024/04/18 10:10:50;;;;;;;2.72;1.58;;;;;;;11.68;73.52;101569.38;5207760;27;19999;-72
2024/04/18 10:13:16;;;;;;;4.13;1.50;;;;;;;11.75;85.55;101578.81;5177537;27;20004;-73
2024/04/18 10:15:41;;;;;;;4.57;2.05;;;;;;;11.57;73.49;101573.84;5196497;27;20340;-72
2024/04/18 10:18:17;;;;;;;3.22;1.70;;;;;;;11.55;81.93;101570.63;5178443;27;20026;-73
2024/04/18 10:20:46;;;;;;;3.13;1.60;;;;;;;11.67;81.50;101571.25;5170540;27;20008;-73
2024/04/18 10:23:13;;;;;;;4.00;1.95;;;;;;;11.89;87.18;101565.81;5176727;27;20007;-72
2024/04/18 10:25:44;;;;;;;2.25;1.50;;;;;;;11.93;77.12;101566.13;5198203;27;20014;-73
2024/04/18 10:28:25;;;;;;;2.92;1.52;;;;;;;12.03;71.87;101560.78;5170832;27;20007;-73
2024/04/18 10:30:51;;;;;;;4.20;1.73;;;;;;;12.01;69.36;101563.75;5175090;27;20008;-74
2024/04/18 10:33:17;;;;;;;4.50;1.25;;;;;;;12.03;66.23;101566.16;5194625;27;20047;-74
2024/04/18 10:35:43;;;;;;;2.65;1.35;;;;;;;12.12;66.30;101559.22;5179708;27;20466;-73
2024/04/18 10:38:08;;;;;;;2.80;1.10;;;;;;;12.20;65.68;101557.97;5174804;27;20015;-72
2024/04/18 10:40:34;;;;;;;2.22;1.20;;;;;;;12.33;66.41;101553.97;5205984;27;20011;-73
2024/04/18 10:43:07;;;;;;;;;;;;;;;12.55;65.52;101558.13;5146504;27;20478;-73
2024/04/18 10:45:34;;;;;;;1.70;0.90;;;;;;;12.80;67.70;101554.72;5206303;27;20625;-74
2024/04/18 10:48:02;;;;;;;2.85;1.30;;;;;;;12.95;62.27;101547.75;5149319;27;20100;-73
2024/04/18 10:50:29;;;;;;;2.15;1.00;;;;;;;12.88;62.34;101539.16;5151073;27;20008;-73
2024/04/18 10:52:54;;;;;;;2.95;1.63;;;;;;;12.78;63.58;101539.91;5175061;27;20023;-74
2024/04/18 10:55:23;;;;;;;3.10;1.25;;;;;;;12.71;67.76;101544.72;5177761;27;20009;-74
2024/04/18 10:57:49;;;;;;;3.08;1.55;;;;;;;12.48;66.59;101540.63;5172876;27;20011;-74
2024/04/18 11:00:18;;;;;;;3.72;1.38;;;;;;;12.53;71.96;101548.69;5185496;27;20452;-74
2024/04/18 11:02:44;;;;;;;1.90;1.30;;;;;;;12.50;72.13;101550.03;5174778;27;20370;-74
2024/04/18 11:05:10;;;;;;;2.15;1.10;;;;;;;12.28;66.98;101558.25;5178441;27;20008;-75
2024/04/18 11:07:47;;;;;;;2.20;1.00;;;;;;;12.03;62.60;101547.38;5191571;27;20020;-73
2024/04/18 11:10:14;;;;;;;3.88;1.70;;;;;;;11.92;68.95;101553.72;5191448;27;20016;-73
2024/04/18 11:12:40;;;;;;;2.28;1.33;;;;;;;11.87;86.41;101553.72;5202840;27;20086;-72
2024/04/18 11:15:06;;;;;;;5.75;2.08;;;;;;;11.74;86.00;101554.94;5167556;27;20353;-72
2024/04/18 11:17:35;;;;;;;4.43;2.42;;;;;;;11.58;88.62;101543.25;5160869;27;20018;-72
2024/04/18 11:20:01;;;;;;;3.80;2.60;;;;;;;11.44;93.95;101548.25;5172717;27;20014;-73
2024/04/18 11:22:27;;;;;;;;;;;;;;;11.32;100.00;101555.69;5196992;27;20024;-72
2024/04/18 11:24:53;;;;;;;5.53;2.15;;;;;;;11.11;100.00;101560.03;5189558;27;19959;-73
2024/04/18 11:27:19;;;;;;;3.78;1.85;;;;;;;11.02;100.00;101558.84;5185298;27;20017;-73
2024/04/18 11:29:51;;;;;;;2.67;1.58;;;;;;;10.89;100.00;101562.72;5173509;27;20004;-74
2024/04/18 11:32:17;;;;;;;2.95;1.80;;;;;;;10.84;100.00;101569.94;5196522;27;20003;-73
2024/04/18 11:34:43;;;;;;;4.00;2.03;;;;;;;10.80;100.00;101566.13;5189965;27;20004;-72
2024/04/18 11:37:11;;;;;;;4.38;1.60;;;;;;;10.68;100.00;101568.94;5196721;27;20036;-72
2024/04/18 11:39:39;;;;;;;3.97;1.50;;;;;;;10.62;100.00;101562.69;5192148;27;20580;-73
2024/04/18 11:42:06;;;;;;;3.83;1.80;;;;;;;10.60;100.00;101564.00;5201431;27;20008;-73
2024/04/18 11:44:32;;;;;;;3.28;1.83;;;;;;;10.62;100.00;101564.56;5179389;27;20022;-72